Terminal Aerodrome Forecast
Issued by NWS Sterling, VA

Home | Current Version | Previous Version | Text Only | Print | Product List | Glossary On
Versions: 1 2 3 4 5 6 7 8 9 10 11 12 13 14 15 16 17 18 19 20
000
FTUS41 KLWX 301100
TAFIAD
TAF
KIAD 301131Z 3012/3118 16003KT P6SM BKN028 OVC050
     FM301400 16007KT P6SM BKN050
     FM302300 15008KT P6SM SCT250
     FM310400 16006KT P6SM BKN090
     FM310600 17006KT 3SM BR BKN050
     FM311300 20007KT P6SM BKN250=

USA.gov is the U.S. government's official web portal to all federal, state and local government web resources and services.